LIEE Airport Information

Runway Information
Runway 14 Length 9196 ft width 148 ft
Elevation 9 ft Threshold ft Heading 138
Runway 32 Length 9196 ft Width 148 ft
Elevation 4 ft Threshold ft Heading 318
Airport Frequencies
Type APP Name CAGLIARI A Frequency 118.75 MHZ
Type GND Name Elmas GND Frequency 125.425 MHZ
Type MISC Name SAR Frequency 123.1 MHZ
Type TWR Name TWR Frequency 120.6 MHZ
Airport Navaids
Type VOR-DME Name Cagliari Frequency 113400 KHZ
Type NDB Name Cagliari Frequency 371 KHZ
Airport Weather Information & NOTAM
ADDS - METARS form results

(1209 UTC 27 January 2023)
Data provider http://aviationweather.gov/metar/data/
 
METAR text: LIEE 271150Z 33008KT 9999 FEW030 SCT050 12/06 Q1008
Conditions at: LIEE (CAGLIARI/ELMAS(A, IT) observed 1150 UTC 27 January 2023
Temperature: 12.0°C (54°F)
Dewpoint: 6.0°C (43°F) [RH = 67%]
Pressure (altimeter): 29.76 inches Hg (1008.0 mb)
Winds: from the NNW (330 degrees) at 9 MPH (8 knots; 4.1 m/s)
Visibility: 6 or more miles (10+ km)
Ceiling: at least 12,000 feet AGL
Clouds: few clouds at 3000 feet AGL
scattered clouds at 5000 feet AGL
Weather: no significant weather observed at this time

METAR text: LIEE 271120Z 32008KT 9999 FEW030 11/06 Q1009
Conditions at: LIEE (CAGLIARI/ELMAS(A, IT) observed 1120 UTC 27 January 2023
Temperature: 11.0°C (52°F)
Dewpoint: 6.0°C (43°F) [RH = 71%]
Pressure (altimeter): 29.79 inches Hg (1009.0 mb)
Winds: from the NW (320 degrees) at 9 MPH (8 knots; 4.1 m/s)
Visibility: 6 or more miles (10+ km)
Ceiling: at least 12,000 feet AGL
Clouds: few clouds at 3000 feet AGL
Weather: no significant weather observed at this time

Forecast for: LIEE (CAGLIARI/ELMAS(A, IT)
Text: TAF LIEE 271100Z 2712/2812 33012KT 9999 FEW035
Forecast period: 1200 UTC 27 January 2023 to 1200 UTC 28 January 2023
Forecast type: FROM: standard forecast or significant change
Winds: from the NNW (330 degrees) at 14 MPH (12 knots; 6.2 m/s)
Visibility: 6 or more miles (10+ km)
Ceiling: at least 12,000 feet AGL
Clouds: few clouds at 3500 feet AGL
Weather: no significant weather forecast for this period